Time;durP1;ratioP1;P1;durP2;ratioP2;P2;SDS_P1;SDS_P2;PMS_P1;PMS_P2;Temp;Humidity;BMP_temperature;BMP_pressure;BME280_temperature;BME280_humidity;BME280_pressure;Samples;Min_cycle;Max_cycle;Signal;HPM_P1;HPM_P2
2022/04/18 00:00:04;;;;;;;;;;;;;;;;;;5052031;28;19913;-81
2022/04/18 00:02:29;;;;;;;;;;;;;;;;;;5053130;28;19912;-81
2022/04/18 00:04:54;;;;;;;;;;;;;;;;;;5051958;28;20283;-81
2022/04/18 00:07:19;;;;;;;;;;;;;;;;;;5055719;28;19912;-81
2022/04/18 00:09:45;;;;;;;;;;;;;;;;;;5057498;28;20016;-81
2022/04/18 00:12:10;;;;;;;;;;;;;;;;;;5055990;28;19942;-81
2022/04/18 00:14:35;;;;;;;;;;;;;;;;;;5055892;28;20395;-81
2022/04/18 00:17:00;;;;;;;;;;;;;;;;;;5055560;28;20360;-81
2022/04/18 00:19:25;;;;;;;;;;;;;;;;;;5070811;28;19912;-81
2022/04/18 00:21:50;;;;;;;;;;;;;;;;;;5055384;28;19908;-81
2022/04/18 00:24:17;;;;;;;;;;;;;;;;;;5055564;28;19913;-81
2022/04/18 00:26:42;;;;;;;;;;;;;;;;;;5055726;28;19999;-81
2022/04/18 00:29:07;;;;;;;;;;;;;;;;;;5055516;28;20011;-81
2022/04/18 00:31:32;;;;;;;;;;;;;;;;;;5074665;28;19920;-81
2022/04/18 00:33:57;;;;;;;;;;;;;;;;;;5075440;28;19915;-80
2022/04/18 00:36:22;;;;;;;;;;;;;;;;;;5075563;28;19915;-81
2022/04/18 00:38:47;;;;;;;;;;;;;;;;;;5075272;28;19919;-81
2022/04/18 00:41:12;;;;;;;;;;;;;;;;;;5075399;28;19912;-81
2022/04/18 00:43:38;;;;;;;;;;;;;;;;;;5071333;28;19913;-81
2022/04/18 00:46:03;;;;;;;;;;;;;;;;;;5056412;28;19913;-81
2022/04/18 00:48:28;;;;;;;;;;;;;;;;;;5055196;28;19934;-81
2022/04/18 00:50:53;;;;;;;;;;;;;;;;;;5055238;28;19917;-81
2022/04/18 00:53:18;;;;;;;;;;;;;;;;;;5055899;28;19917;-81
2022/04/18 00:55:44;;;;;;;;;;;;;;;;;;5074946;28;19908;-81
2022/04/18 00:58:09;;;;;;;;;;;;;;;;;;5076056;28;19963;-81
2022/04/18 01:00:34;;;;;;;;;;;;;;;;;;5076112;28;20307;-81
2022/04/18 01:02:59;;;;;;;;;;;;;;;;;;5076368;28;19948;-80
2022/04/18 01:05:24;;;;;;;;;;;;;;;;;;5072597;28;20001;-81
2022/04/18 01:07:49;;;;;;;;;;;;;;;;;;5054953;28;19994;-81
2022/04/18 01:10:15;;;;;;;;;;;;;;;;;;5055129;28;19963;-81
2022/04/18 01:12:41;;;;;;;;;;;;;;;;;;5054726;28;20349;-81
2022/04/18 01:15:06;;;;;;;;;;;;;;;;;;5056148;28;19908;-80
2022/04/18 01:17:31;;;;;;;;;;;;;;;;;;5055242;28;19920;-81
2022/04/18 01:19:56;;;;;;;;;;;;;;;;;;5056090;28;19919;-81
2022/04/18 01:22:22;;;;;;;;;;;;;;;;;;5054639;28;19924;-81
2022/04/18 01:30:15;;;;;;;;;;;;;;;;;;5064086;28;19923;-81
2022/04/18 01:32:40;;;;;;;;;;;;;;;;;;5074387;28;19909;-81
2022/04/18 01:35:05;;;;;;;;;;;;;;;;;;5074570;28;19909;-81
2022/04/18 01:37:30;;;;;;;;;;;;;;;;;;5074242;28;20368;-80
2022/04/18 01:39:56;;;;;;;;;;;;;;;;;;5074402;28;19909;-81
2022/04/18 01:42:21;;;;;;;;;;;;;;;;;;5070286;28;19913;-81
2022/04/18 01:44:46;;;;;;;;;;;;;;;;;;5058237;28;19917;-81
2022/04/18 01:47:11;;;;;;;;;;;;;;;;;;5073596;28;19938;-81
2022/04/18 01:49:36;;;;;;;;;;;;;;;;;;5074133;28;19912;-80
2022/04/18 01:52:01;;;;;;;;;;;;;;;;;;5074112;28;19908;-81
2022/04/18 01:54:26;;;;;;;;;;;;;;;;;;5070075;28;20450;-81
2022/04/18 01:56:52;;;;;;;;;;;;;;;;;;5053814;28;19909;-81
2022/04/18 01:59:17;;;;;;;;;;;;;;;;;;5053880;28;19908;-81
2022/04/18 02:01:42;;;;;;;;;;;;;;;;;;5054074;28;19919;-81
2022/04/18 02:04:07;;;;;;;;;;;;;;;;;;5053861;28;19909;-81
2022/04/18 02:06:32;;;;;;;;;;;;;;;;;;5054394;28;19957;-81
2022/04/18 02:08:57;;;;;;;;;;;;;;;;;;5053601;28;20561;-81
2022/04/18 02:11:22;;;;;;;;;;;;;;;;;;5053676;28;19909;-81
2022/04/18 02:13:47;;;;;;;;;;;;;;;;;;5053409;28;19908;-81
2022/04/18 02:16:12;;;;;;;;;;;;;;;;;;5070610;28;20301;-81
2022/04/18 02:18:37;;;;;;;;;;;;;;;;;;5069371;28;20372;-80
2022/04/18 02:21:02;;;;;;;;;;;;;;;;;;5087152;28;19909;-81
2022/04/18 02:23:28;;;;;;;;;;;;;;;;;;5087223;28;19916;-81
2022/04/18 02:25:53;;;;;;;;;;;;;;;;;;5086933;28;19916;-80
2022/04/18 02:28:18;;;;;;;;;;;;;;;;;;5054569;28;19931;-81
2022/04/18 02:30:43;;;;;;;;;;;;;;;;;;5064314;28;19924;-81
2022/04/18 02:33:08;;;;;;;;;;;;;;;;;;5073248;28;19909;-81
2022/04/18 02:35:33;;;;;;;;;;;;;;;;;;5073166;28;19946;-80
2022/04/18 02:37:58;;;;;;;;;;;;;;;;;;5073297;28;19959;-81
2022/04/18 02:40:23;;;;;;;;;;;;;;;;;;5073259;28;20081;-81
2022/04/18 02:42:48;;;;;;;;;;;;;;;;;;5071452;28;19965;-81
2022/04/18 02:45:18;;;;;;;;;;;;;;;;;;5074022;28;19916;-81
2022/04/18 02:47:43;;;;;;;;;;;;;;;;;;5072657;28;20006;-80
2022/04/18 02:50:09;;;;;;;;;;;;;;;;;;5072972;28;19998;-81
2022/04/18 02:52:34;;;;;;;;;;;;;;;;;;5068896;28;19913;-81
2022/04/18 02:54:59;;;;;;;;;;;;;;;;;;5052750;28;20031;-81
2022/04/18 02:57:24;;;;;;;;;;;;;;;;;;5052888;28;19919;-81
2022/04/18 02:59:49;;;;;;;;;;;;;;;;;;5052916;28;19913;-81
2022/04/18 03:02:14;;;;;;;;;;;;;;;;;;5052765;28;19920;-81
2022/04/18 03:04:39;;;;;;;;;;;;;;;;;;5053293;28;19919;-81
2022/04/18 03:07:04;;;;;;;;;;;;;;;;;;5052582;28;20284;-80
2022/04/18 03:09:30;;;;;;;;;;;;;;;;;;5086411;28;19908;-82
2022/04/18 03:11:56;;;;;;;;;;;;;;;;;;5086206;28;19913;-81
2022/04/18 03:14:21;;;;;;;;;;;;;;;;;;5086098;28;19909;-80
2022/04/18 03:16:47;;;;;;;;;;;;;;;;;;5066123;28;19916;-81
2022/04/18 03:19:12;;;;;;;;;;;;;;;;;;5072571;28;19916;-81
2022/04/18 03:21:37;;;;;;;;;;;;;;;;;;5072351;28;19978;-81
2022/04/18 03:24:02;;;;;;;;;;;;;;;;;;5068462;28;20007;-81
2022/04/18 03:26:27;;;;;;;;;;;;;;;;;;5052359;28;19912;-81
2022/04/18 03:28:52;;;;;;;;;;;;;;;;;;5052629;28;20238;-81
2022/04/18 03:31:17;;;;;;;;;;;;;;;;;;5052313;28;19909;-81
2022/04/18 03:33:42;;;;;;;;;;;;;;;;;;5053013;28;20011;-81
2022/04/18 03:41:35;;;;;;;;;;;;;;;;;;5073077;28;19915;-81
2022/04/18 03:44:00;;;;;;;;;;;;;;;;;;5072052;28;19909;-81
2022/04/18 03:46:25;;;;;;;;;;;;;;;;;;5067428;28;19927;-81
2022/04/18 03:48:50;;;;;;;;;;;;;;;;;;5051925;28;19931;-80
2022/04/18 03:51:15;;;;;;;;;;;;;;;;;;5052115;28;20376;-80
2022/04/18 03:53:40;;;;;;;;;;;;;;;;;;5053281;28;19915;-81
2022/04/18 03:56:06;;;;;;;;;;;;;;;;;;5051969;28;20364;-81
2022/04/18 03:58:31;;;;;;;;;;;;;;;;;;5061574;28;19917;-81
2022/04/18 04:00:56;;;;;;;;;;;;;;;;;;5071918;28;19908;-81
2022/04/18 04:03:21;;;;;;;;;;;;;;;;;;5071973;28;19967;-81
2022/04/18 04:05:46;;;;;;;;;;;;;;;;;;5072155;28;20344;-81
2022/04/18 04:08:11;;;;;;;;;;;;;;;;;;5071901;28;20008;-81
2022/04/18 04:10:36;;;;;;;;;;;;;;;;;;5068160;28;19913;-81
2022/04/18 04:13:02;;;;;;;;;;;;;;;;;;5066154;28;19912;-81
2022/04/18 04:15:27;;;;;;;;;;;;;;;;;;5071948;28;19909;-81
2022/04/18 04:17:52;;;;;;;;;;;;;;;;;;5073206;28;19912;-81
2022/04/18 04:20:17;;;;;;;;;;;;;;;;;;5071910;28;19908;-81
2022/04/18 04:22:42;;;;;;;;;;;;;;;;;;5067672;28;20357;-81
2022/04/18 04:25:07;;;;;;;;;;;;;;;;;;5051733;28;19952;-81
2022/04/18 04:27:32;;;;;;;;;;;;;;;;;;5051782;28;19960;-80
2022/04/18 04:29:58;;;;;;;;;;;;;;;;;;5051852;28;20321;-81
2022/04/18 04:32:24;;;;;;;;;;;;;;;;;;5051703;28;19913;-80
2022/04/18 04:34:50;;;;;;;;;;;;;;;;;;5063168;28;20011;-81
2022/04/18 04:37:15;;;;;;;;;;;;;;;;;;5070998;28;20351;-81
2022/04/18 04:39:40;;;;;;;;;;;;;;;;;;5064753;28;19958;-81
2022/04/18 04:42:05;;;;;;;;;;;;;;;;;;5051748;28;19954;-81
2022/04/18 04:44:30;;;;;;;;;;;;;;;;;;5051769;28;19915;-81
2022/04/18 04:46:56;;;;;;;;;;;;;;;;;;5066202;28;19923;-81
2022/04/18 04:49:21;;;;;;;;;;;;;;;;;;5071681;28;19931;-80
2022/04/18 04:51:46;;;;;;;;;;;;;;;;;;5071587;28;20307;-81
2022/04/18 04:54:11;;;;;;;;;;;;;;;;;;5075361;28;19931;-81
2022/04/18 04:56:36;;;;;;;;;;;;;;;;;;5076401;28;20359;-81
2022/04/18 04:59:03;;;;;;;;;;;;;;;;;;5070976;28;19924;-81
2022/04/18 05:01:29;;;;;;;;;;;;;;;;;;5055003;28;19947;-81
2022/04/18 05:03:54;;;;;;;;;;;;;;;;;;5055159;28;19935;-81
2022/04/18 05:06:20;;;;;;;;;;;;;;;;;;5055193;28;19908;-81
2022/04/18 05:08:45;;;;;;;;;;;;;;;;;;5054920;28;20434;-81
2022/04/18 05:11:10;;;;;;;;;;;;;;;;;;5055360;28;19913;-81
2022/04/18 05:13:35;;;;;;;;;;;;;;;;;;5054756;28;20395;-81
2022/04/18 05:16:00;;;;;;;;;;;;;;;;;;5054896;28;20002;-81
2022/04/18 05:18:27;;;;;;;;;;;;;;;;;;5054790;28;20365;-81
2022/04/18 05:20:52;;;;;;;;;;;;;;;;;;5054783;28;19915;-81
2022/04/18 05:23:17;;;;;;;;;;;;;;;;;;5071626;28;19912;-81
2022/04/18 05:25:42;;;;;;;;;;;;;;;;;;5075744;28;19909;-81
2022/04/18 05:28:07;;;;;;;;;;;;;;;;;;5074735;28;20356;-81
2022/04/18 05:30:32;;;;;;;;;;;;;;;;;;5074679;28;19954;-81
2022/04/18 05:32:57;;;;;;;;;;;;;;;;;;5074794;28;19909;-81
2022/04/18 05:35:23;;;;;;;;;;;;;;;;;;5070652;28;19956;-81
2022/04/18 05:37:48;;;;;;;;;;;;;;;;;;5054467;28;20284;-81
2022/04/18 05:40:13;;;;;;;;;;;;;;;;;;5055426;28;19915;-81
2022/04/18 05:42:38;;;;;;;;;;;;;;;;;;5054353;28;19958;-80
2022/04/18 05:45:03;;;;;;;;;;;;;;;;;;5055590;28;19952;-81
2022/04/18 05:47:28;;;;;;;;;;;;;;;;;;5055224;28;19917;-81
2022/04/18 05:49:53;;;;;;;;;;;;;;;;;;5054183;28;20364;-81
2022/04/18 05:52:18;;;;;;;;;;;;;;;;;;5053965;28;19968;-81
2022/04/18 05:54:44;;;;;;;;;;;;;;;;;;5053844;28;20588;-81
2022/04/18 05:57:09;;;;;;;;;;;;;;;;;;5053250;28;19931;-80
2022/04/18 05:59:34;;;;;;;;;;;;;;;;;;5069409;28;19912;-81
2022/04/18 06:01:59;;;;;;;;;;;;;;;;;;5087590;28;20428;-81
2022/04/18 06:04:24;;;;;;;;;;;;;;;;;;5086450;28;19923;-81
2022/04/18 06:06:49;;;;;;;;;;;;;;;;;;5053868;28;19916;-81
2022/04/18 06:09:14;;;;;;;;;;;;;;;;;;5053510;28;19958;-80
2022/04/18 06:11:39;;;;;;;;;;;;;;;;;;5053829;28;20365;-81
2022/04/18 06:14:05;;;;;;;;;;;;;;;;;;5067576;28;19913;-81
2022/04/18 06:16:30;;;;;;;;;;;;;;;;;;5072601;28;20348;-81
2022/04/18 06:18:55;;;;;;;;;;;;;;;;;;5068464;28;19984;-80
2022/04/18 06:21:20;;;;;;;;;;;;;;;;;;5068094;28;19912;-81
2022/04/18 06:23:45;;;;;;;;;;;;;;;;;;5068543;28;19923;-81
2022/04/18 06:26:10;;;;;;;;;;;;;;;;;;5068601;28;19977;-81
2022/04/18 06:28:35;;;;;;;;;;;;;;;;;;5069775;28;19943;-81
2022/04/18 06:31:00;;;;;;;;;;;;;;;;;;5064263;28;19999;-82
2022/04/18 06:33:25;;;;;;;;;;;;;;;;;;5072106;28;19920;-82
2022/04/18 06:35:51;;;;;;;;;;;;;;;;;;5073281;28;20367;-82
2022/04/18 06:38:16;;;;;;;;;;;;;;;;;;5072850;28;19913;-81
2022/04/18 06:40:41;;;;;;;;;;;;;;;;;;5052207;28;20012;-81
2022/04/18 06:43:06;;;;;;;;;;;;;;;;;;5054221;28;19938;-81
2022/04/18 06:45:31;;;;;;;;;;;;;;;;;;5067493;28;19909;-82
2022/04/18 06:47:56;;;;;;;;;;;;;;;;;;5071778;28;19917;-82
2022/04/18 06:50:21;;;;;;;;;;;;;;;;;;5069177;28;19917;-82
2022/04/18 06:52:49;;;;;;;;;;;;;;;;;;5072728;28;19909;-82
2022/04/18 06:55:14;;;;;;;;;;;;;;;;;;5074083;28;19909;-82
2022/04/18 06:57:40;;;;;;;;;;;;;;;;;;5072588;28;19919;-82
2022/04/18 07:00:05;;;;;;;;;;;;;;;;;;5063675;28;19912;-81
2022/04/18 07:02:30;;;;;;;;;;;;;;;;;;5068516;28;19919;-81
2022/04/18 07:04:55;;;;;;;;;;;;;;;;;;5071959;28;20042;-82
2022/04/18 07:07:20;;;;;;;;;;;;;;;;;;5072116;28;20069;-82
2022/04/18 07:09:45;;;;;;;;;;;;;;;;;;5071629;28;19923;-82
2022/04/18 07:12:10;;;;;;;;;;;;;;;;;;5071334;28;19916;-81
2022/04/18 07:14:36;;;;;;;;;;;;;;;;;;5073198;28;19912;-82
2022/04/18 07:17:01;;;;;;;;;;;;;;;;;;5069628;28;19916;-82
2022/04/18 07:19:28;;;;;;;;;;;;;;;;;;5072165;28;19913;-82
2022/04/18 07:21:53;;;;;;;;;;;;;;;;;;5066985;28;19919;-83
2022/04/18 07:24:18;;;;;;;;;;;;;;;;;;5073233;28;19912;-82
2022/04/18 07:26:44;;;;;;;;;;;;;;;;;;5060668;28;19924;-82
2022/04/18 07:29:09;;;;;;;;;;;;;;;;;;5072228;28;19957;-82
2022/04/18 07:31:34;;;;;;;;;;;;;;;;;;5070105;28;19917;-82
2022/04/18 07:33:59;;;;;;;;;;;;;;;;;;5083147;28;19912;-82
2022/04/18 07:36:25;;;;;;;;;;;;;;;;;;5080488;28;19909;-82
2022/04/18 07:38:50;;;;;;;;;;;;;;;;;;5073694;28;19917;-82
2022/04/18 07:41:15;;;;;;;;;;;;;;;;;;5069290;28;20685;-82
2022/04/18 07:43:40;;;;;;;;;;;;;;;;;;5069258;28;20325;-83
2022/04/18 07:46:05;;;;;;;;;;;;;;;;;;5066464;28;20429;-83
2022/04/18 07:48:30;;;;;;;;;;;;;;;;;;5071952;28;20016;-81
2022/04/18 07:53:39;;;;;;;;;;;;;;;;;;5073320;28;19920;-82
2022/04/18 07:56:04;;;;;;;;;;;;;;;;;;5071931;28;19908;-82
2022/04/18 07:58:29;;;;;;;;;;;;;;;;;;5052422;28;20430;-82
2022/04/18 08:00:54;;;;;;;;;;;;;;;;;;5051644;28;19913;-82
2022/04/18 08:03:19;;;;;;;;;;;;;;;;;;5059601;28;19951;-82
2022/04/18 08:05:45;;;;;;;;;;;;;;;;;;5068484;28;19952;-82
2022/04/18 08:08:10;;;;;;;;;;;;;;;;;;5056179;28;20007;-82
2022/04/18 08:10:38;;;;;;;;;;;;;;;;;;5071723;28;20015;-82
2022/04/18 08:13:03;;;;;;;;;;;;;;;;;;5071854;28;19912;-82
2022/04/18 08:15:28;;;;;;;;;;;;;;;;;;5066188;28;20377;-82
2022/04/18 08:17:53;;;;;;;;;;;;;;;;;;5061430;28;19916;-82
2022/04/18 08:20:18;;;;;;;;;;;;;;;;;;5070756;28;19912;-82
2022/04/18 08:22:44;;;;;;;;;;;;;;;;;;5066708;28;19921;-82
2022/04/18 08:25:09;;;;;;;;;;;;;;;;;;5067114;28;19920;-82
2022/04/18 08:27:34;;;;;;;;;;;;;;;;;;5056002;28;19932;-82
2022/04/18 08:30:00;;;;;;;;;;;;;;;;;;5069739;28;19982;-81
2022/04/18 08:32:25;;;;;;;;;;;;;;;;;;5069240;28;19919;-82
2022/04/18 08:34:50;;;;;;;;;;;;;;;;;;5075454;28;19909;-82
2022/04/18 08:37:15;;;;;;;;;;;;;;;;;;5071331;28;19912;-82
2022/04/18 08:39:40;;;;;;;;;;;;;;;;;;5056856;28;19999;-82
2022/04/18 08:42:06;;;;;;;;;;;;;;;;;;5055680;28;19959;-82
2022/04/18 08:44:31;;;;;;;;;;;;;;;;;;5055360;28;19909;-82
2022/04/18 08:46:56;;;;;;;;;;;;;;;;;;5056476;28;19916;-82
2022/04/18 08:54:49;;;;;;;;;;;;;;;;;;5076415;28;19950;-82
2022/04/18 08:57:14;;;;;;;;;;;;;;;;;;5075226;28;19917;-82
2022/04/18 08:59:40;;;;;;;;;;;;;;;;;;5075318;28;20356;-82
2022/04/18 09:02:05;;;;;;;;;;;;;;;;;;5070839;28;20015;-82
2022/04/18 09:04:30;;;;;;;;;;;;;;;;;;5054856;28;19919;-82
2022/04/18 09:06:55;;;;;;;;;;;;;;;;;;5056408;28;19991;-82
2022/04/18 09:09:20;;;;;;;;;;;;;;;;;;5056317;28;19909;-81
2022/04/18 09:11:45;;;;;;;;;;;;;;;;;;5055905;28;19913;-82
2022/04/18 09:14:10;;;;;;;;;;;;;;;;;;5054695;28;19909;-82
2022/04/18 09:16:35;;;;;;;;;;;;;;;;;;5054136;28;19913;-82
2022/04/18 09:19:00;;;;;;;;;;;;;;;;;;5054669;28;19917;-81
2022/04/18 09:21:25;;;;;;;;;;;;;;;;;;5054692;28;19920;-82
2022/04/18 09:23:51;;;;;;;;;;;;;;;;;;5054631;28;20428;-81
2022/04/18 09:26:16;;;;;;;;;;;;;;;;;;5054659;28;19922;-82
2022/04/18 09:28:41;;;;;;;;;;;;;;;;;;5054739;28;19909;-82
2022/04/18 09:31:06;;;;;;;;;;;;;;;;;;5056473;28;19923;-82
2022/04/18 09:33:31;;;;;;;;;;;;;;;;;;5053948;28;20000;-82
2022/04/18 09:35:56;;;;;;;;;;;;;;;;;;5070447;28;19913;-82
2022/04/18 09:38:21;;;;;;;;;;;;;;;;;;5053779;28;20415;-81
2022/04/18 09:40:47;;;;;;;;;;;;;;;;;;5064318;28;19943;-82
2022/04/18 09:43:12;;;;;;;;;;;;;;;;;;5075540;28;19916;-82
2022/04/18 09:45:37;;;;;;;;;;;;;;;;;;5074046;28;19915;-82
2022/04/18 09:48:02;;;;;;;;;;;;;;;;;;5074079;28;20375;-82
2022/04/18 09:53:11;;;;;;;;;;;;;;;;;;5074505;28;20417;-82
2022/04/18 09:55:36;;;;;;;;;;;;;;;;;;5073988;28;20419;-81
2022/04/18 09:58:01;;;;;;;;;;;;;;;;;;5074017;28;19912;-82
2022/04/18 10:00:26;;;;;;;;;;;;;;;;;;5073978;28;20383;-81
2022/04/18 10:02:51;;;;;;;;;;;;;;;;;;5073639;28;20007;-82
2022/04/18 10:05:16;;;;;;;;;;;;;;;;;;5072776;28;19912;-82
2022/04/18 10:07:42;;;;;;;;;;;;;;;;;;5070612;28;19909;-82
2022/04/18 10:10:10;;;;;;;;;;;;;;;;;;5073380;28;20015;-82
2022/04/18 10:12:35;;;;;;;;;;;;;;;;;;5073298;28;20287;-83
2022/04/18 10:15:00;;;;;;;;;;;;;;;;;;5072824;28;20411;-83
2022/04/18 10:17:25;;;;;;;;;;;;;;;;;;5073591;28;19931;-83
2022/04/18 10:19:50;;;;;;;;;;;;;;;;;;5073638;28;19915;-83
2022/04/18 10:22:15;;;;;;;;;;;;;;;;;;5073317;28;19913;-83
2022/04/18 10:24:40;;;;;;;;;;;;;;;;;;5073559;28;19977;-83
2022/04/18 10:27:05;;;;;;;;;;;;;;;;;;5072389;28;20380;-83
2022/04/18 10:29:30;;;;;;;;;;;;;;;;;;5069270;28;20416;-83
2022/04/18 10:31:56;;;;;;;;;;;;;;;;;;5053397;28;19909;-83
2022/04/18 10:34:22;;;;;;;;;;;;;;;;;;5066205;28;19913;-83
2022/04/18 10:36:48;;;;;;;;;;;;;;;;;;5072904;28;19916;-83
2022/04/18 10:39:14;;;;;;;;;;;;;;;;;;5069623;28;20873;-83
2022/04/18 10:41:39;;;;;;;;;;;;;;;;;;5069407;28;19912;-83
2022/04/18 10:44:06;;;;;;;;;;;;;;;;;;5066494;28;20280;-83
2022/04/18 10:46:31;;;;;;;;;;;;;;;;;;5062493;28;19924;-83
2022/04/18 10:48:56;;;;;;;;;;;;;;;;;;5069141;28;19966;-81
2022/04/18 10:51:21;;;;;;;;;;;;;;;;;;5064255;28;20415;-82
2022/04/18 10:53:46;;;;;;;;;;;;;;;;;;5071480;28;19920;-83
2022/04/18 10:56:11;;;;;;;;;;;;;;;;;;5072645;28;19915;-82
2022/04/18 10:58:36;;;;;;;;;;;;;;;;;;5073300;28;19916;-83
2022/04/18 11:01:02;;;;;;;;;;;;;;;;;;5085112;28;19913;-82
2022/04/18 11:03:27;;;;;;;;;;;;;;;;;;5069390;28;20542;-83
2022/04/18 11:05:52;;;;;;;;;;;;;;;;;;5069536;28;19916;-82
2022/04/18 11:08:17;;;;;;;;;;;;;;;;;;5071665;28;19916;-82
2022/04/18 11:10:42;;;;;;;;;;;;;;;;;;5068812;28;19913;-82
2022/04/18 11:13:07;;;;;;;;;;;;;;;;;;5067998;28;19912;-82
2022/04/18 11:15:32;;;;;;;;;;;;;;;;;;5068937;28;20356;-82
2022/04/18 11:17:57;;;;;;;;;;;;;;;;;;5052471;28;19921;-82
2022/04/18 11:20:22;;;;;;;;;;;;;;;;;;5062282;28;19908;-82
2022/04/18 11:22:47;;;;;;;;;;;;;;;;;;5072185;28;19912;-83
2022/04/18 11:25:12;;;;;;;;;;;;;;;;;;5071383;28;19909;-82
2022/04/18 11:27:38;;;;;;;;;;;;;;;;;;5069540;28;20261;-82
2022/04/18 11:30:03;;;;;;;;;;;;;;;;;;5079067;28;19919;-82
2022/04/18 11:32:29;;;;;;;;;;;;;;;;;;5078044;28;20312;-82
2022/04/18 11:34:54;;;;;;;;;;;;;;;;;;5070735;28;20325;-83
2022/04/18 11:37:19;;;;;;;;;;;;;;;;;;5068523;28;19981;-82
2022/04/18 11:39:44;;;;;;;;;;;;;;;;;;5052361;28;19913;-82
2022/04/18 11:42:09;;;;;;;;;;;;;;;;;;5062976;28;19940;-82
2022/04/18 11:44:35;;;;;;;;;;;;;;;;;;5080000;28;19920;-82
2022/04/18 11:47:00;;;;;;;;;;;;;;;;;;5065194;28;20011;-83
2022/04/18 11:49:25;;;;;;;;;;;;;;;;;;5069450;28;20270;-82
2022/04/18 11:51:50;;;;;;;;;;;;;;;;;;5071442;28;20003;-82
2022/04/18 11:54:15;;;;;;;;;;;;;;;;;;5072645;28;19913;-82
2022/04/18 11:56:40;;;;;;;;;;;;;;;;;;5068615;28;19909;-82
2022/04/18 11:59:06;;;;;;;;;;;;;;;;;;5065563;28;19978;-82
2022/04/18 12:06:58;;;;;;;;;;;;;;;;;;5079922;28;19931;-82
2022/04/18 12:09:25;;;;;;;;;;;;;;;;;;5076932;28;19912;-82
2022/04/18 12:11:50;;;;;;;;;;;;;;;;;;5058916;28;19920;-82
2022/04/18 12:14:18;;;;;;;;;;;;;;;;;;5059800;28;19913;-84
2022/04/18 12:16:43;;;;;;;;;;;;;;;;;;5074188;28;20368;-85
2022/04/18 12:19:11;;;;;;;;;;;;;;;;;;5071473;28;19923;-84
2022/04/18 12:21:36;;;;;;;;;;;;;;;;;;5076282;28;19913;-84
2022/04/18 12:24:01;;;;;;;;;;;;;;;;;;5075902;28;19919;-84
2022/04/18 12:26:26;;;;;;;;;;;;;;;;;;5078056;28;20318;-85
2022/04/18 12:28:51;;;;;;;;;;;;;;;;;;5075152;28;19909;-85
2022/04/18 12:31:16;;;;;;;;;;;;;;;;;;5076622;28;20015;-85
2022/04/18 12:33:41;;;;;;;;;;;;;;;;;;5076561;28;19952;-85
2022/04/18 12:36:07;;;;;;;;;;;;;;;;;;5075636;28;19912;-84
2022/04/18 12:38:32;;;;;;;;;;;;;;;;;;5077397;28;19916;-85
2022/04/18 12:40:58;;;;;;;;;;;;;;;;;;5077547;28;20368;-85
2022/04/18 12:43:23;;;;;;;;;;;;;;;;;;5079359;28;19998;-84
2022/04/18 12:45:48;;;;;;;;;;;;;;;;;;5080435;28;19919;-84
2022/04/18 12:48:13;;;;;;;;;;;;;;;;;;5070808;28;19928;-84
2022/04/18 12:50:38;;;;;;;;;;;;;;;;;;5078290;28;19913;-85
2022/04/18 12:53:04;;;;;;;;;;;;;;;;;;5078812;28;20368;-85
2022/04/18 12:55:30;;;;;;;;;;;;;;;;;;5078255;28;19912;-85
2022/04/18 12:57:55;;;;;;;;;;;;;;;;;;5081568;28;20299;-85
2022/04/18 13:00:20;;;;;;;;;;;;;;;;;;5077185;28;20415;-84
2022/04/18 13:02:45;;;;;;;;;;;;;;;;;;5078093;28;20011;-84
2022/04/18 13:05:10;;;;;;;;;;;;;;;;;;5077333;28;19974;-85
2022/04/18 13:07:35;;;;;;;;;;;;;;;;;;5075428;28;20333;-85
2022/04/18 13:10:01;;;;;;;;;;;;;;;;;;5075605;28;20368;-85
2022/04/18 13:12:26;;;;;;;;;;;;;;;;;;5074756;28;20030;-85
2022/04/18 13:14:51;;;;;;;;;;;;;;;;;;5072928;28;19912;-84
2022/04/18 13:17:16;;;;;;;;;;;;;;;;;;5074815;28;20406;-84
2022/04/18 13:19:42;;;;;;;;;;;;;;;;;;5068272;28;19999;-84
2022/04/18 13:22:07;;;;;;;;;;;;;;;;;;5070540;28;19920;-84
2022/04/18 13:24:32;;;;;;;;;;;;;;;;;;5073848;28;19927;-85
2022/04/18 13:26:57;;;;;;;;;;;;;;;;;;5070925;28;20318;-85
2022/04/18 13:29:22;;;;;;;;;;;;;;;;;;5054448;28;19961;-84
2022/04/18 13:31:47;;;;;;;;;;;;;;;;;;5074352;28;19919;-84
2022/04/18 13:34:12;;;;;;;;;;;;;;;;;;5070659;28;19958;-84
2022/04/18 13:36:38;;;;;;;;;;;;;;;;;;5071130;28;19971;-85
2022/04/18 13:39:03;;;;;;;;;;;;;;;;;;5071153;28;19953;-84
2022/04/18 13:41:28;;;;;;;;;;;;;;;;;;5073135;28;19919;-85
2022/04/18 13:43:54;;;;;;;;;;;;;;;;;;5075258;28;20391;-84
2022/04/18 13:46:19;;;;;;;;;;;;;;;;;;5070657;28;19912;-84
2022/04/18 13:48:47;;;;;;;;;;;;;;;;;;5060851;28;19995;-84
2022/04/18 13:51:12;;;;;;;;;;;;;;;;;;5074216;28;20003;-84
2022/04/18 13:53:37;;;;;;;;;;;;;;;;;;5070536;28;20604;-84
2022/04/18 13:56:02;;;;;;;;;;;;;;;;;;5075325;28;19908;-85
2022/04/18 13:58:27;;;;;;;;;;;;;;;;;;5073795;28;20437;-84
2022/04/18 14:00:53;;;;;;;;;;;;;;;;;;5073784;28;20356;-85
2022/04/18 14:03:18;;;;;;;;;;;;;;;;;;5070622;28;19917;-84
2022/04/18 14:05:43;;;;;;;;;;;;;;;;;;5071118;28;19913;-84
2022/04/18 14:08:08;;;;;;;;;;;;;;;;;;5072981;28;19912;-84
2022/04/18 14:10:35;;;;;;;;;;;;;;;;;;5070229;28;19919;-84
2022/04/18 14:13:00;;;;;;;;;;;;;;;;;;5073993;28;19913;-84
2022/04/18 14:20:53;;;;;;;;;;;;;;;;;;5075096;28;20383;-83
2022/04/18 14:23:18;;;;;;;;;;;;;;;;;;5073784;28;19952;-84
2022/04/18 14:25:43;;;;;;;;;;;;;;;;;;5071848;28;19908;-83
2022/04/18 14:28:08;;;;;;;;;;;;;;;;;;5058719;28;19940;-83
2022/04/18 14:30:34;;;;;;;;;;;;;;;;;;5064377;28;19999;-83
2022/04/18 14:32:59;;;;;;;;;;;;;;;;;;5073320;28;19909;-83
2022/04/18 14:35:25;;;;;;;;;;;;;;;;;;5073228;28;19913;-83
2022/04/18 14:37:50;;;;;;;;;;;;;;;;;;5072898;28;19916;-83
2022/04/18 14:40:15;;;;;;;;;;;;;;;;;;5073128;28;19918;-83
2022/04/18 14:42:40;;;;;;;;;;;;;;;;;;5073216;28;19909;-84
2022/04/18 14:45:05;;;;;;;;;;;;;;;;;;5073105;28;20351;-83
2022/04/18 14:47:30;;;;;;;;;;;;;;;;;;5072702;28;19917;-84
2022/04/18 14:49:55;;;;;;;;;;;;;;;;;;5069230;28;20388;-83
2022/04/18 14:52:22;;;;;;;;;;;;;;;;;;5052949;28;19909;-83
2022/04/18 14:54:47;;;;;;;;;;;;;;;;;;5054416;28;19920;-84
2022/04/18 14:57:13;;;;;;;;;;;;;;;;;;5054271;28;19913;-83
2022/04/18 14:59:38;;;;;;;;;;;;;;;;;;5055836;28;19998;-83
2022/04/18 15:02:03;;;;;;;;;;;;;;;;;;5053940;28;19909;-83
2022/04/18 15:04:28;;;;;;;;;;;;;;;;;;5052785;28;19909;-83
2022/04/18 15:06:53;;;;;;;;;;;;;;;;;;5053030;28;19913;-83
2022/04/18 15:09:18;;;;;;;;;;;;;;;;;;5056605;28;20391;-83
2022/04/18 15:11:45;;;;;;;;;;;;;;;;;;5068419;28;19958;-83
2022/04/18 15:14:10;;;;;;;;;;;;;;;;;;5053969;28;19915;-83
2022/04/18 15:16:36;;;;;;;;;;;;;;;;;;5052484;28;19908;-83
2022/04/18 15:19:01;;;;;;;;;;;;;;;;;;5066365;28;19916;-83
2022/04/18 15:21:26;;;;;;;;;;;;;;;;;;5072373;28;20376;-83
2022/04/18 15:23:51;;;;;;;;;;;;;;;;;;5072326;28;19912;-83
2022/04/18 15:26:16;;;;;;;;;;;;;;;;;;5068293;28;20362;-83
2022/04/18 15:28:41;;;;;;;;;;;;;;;;;;5052548;28;19916;-83
2022/04/18 15:33:50;;;;;;;;;;;;;;;;;;5073422;28;19934;-83
2022/04/18 15:36:15;;;;;;;;;;;;;;;;;;5067826;28;20000;-84
2022/04/18 15:38:41;;;;;;;;;;;;;;;;;;5053215;28;20265;-83
2022/04/18 15:41:06;;;;;;;;;;;;;;;;;;5061731;28;20308;-83
2022/04/18 15:43:31;;;;;;;;;;;;;;;;;;5068521;28;19909;-84
2022/04/18 15:45:58;;;;;;;;;;;;;;;;;;5091874;28;19913;-83
2022/04/18 15:48:23;;;;;;;;;;;;;;;;;;5071783;28;19923;-83
2022/04/18 15:50:48;;;;;;;;;;;;;;;;;;5072152;28;19912;-84
2022/04/18 15:53:13;;;;;;;;;;;;;;;;;;5067600;28;19917;-84
2022/04/18 15:55:38;;;;;;;;;;;;;;;;;;5052036;28;19916;-83
2022/04/18 15:58:03;;;;;;;;;;;;;;;;;;5052144;28;19913;-84
2022/04/18 16:00:28;;;;;;;;;;;;;;;;;;5051973;28;20265;-84
2022/04/18 16:02:53;;;;;;;;;;;;;;;;;;5063511;28;19912;-84
2022/04/18 16:05:19;;;;;;;;;;;;;;;;;;5070584;28;19923;-83
2022/04/18 16:07:44;;;;;;;;;;;;;;;;;;5071766;28;19920;-83
2022/04/18 16:10:09;;;;;;;;;;;;;;;;;;5071829;28;19916;-84
2022/04/18 16:12:34;;;;;;;;;;;;;;;;;;5068441;28;20395;-84
2022/04/18 16:14:59;;;;;;;;;;;;;;;;;;5052206;28;19948;-84
2022/04/18 16:17:25;;;;;;;;;;;;;;;;;;5071227;28;19956;-84
2022/04/18 16:19:54;;;;;;;;;;;;;;;;;;5071738;28;19971;-84
2022/04/18 16:22:19;;;;;;;;;;;;;;;;;;5072973;28;19919;-84
2022/04/18 16:24:44;;;;;;;;;;;;;;;;;;5071713;28;19912;-84
2022/04/18 16:27:09;;;;;;;;;;;;;;;;;;5071303;28;19912;-84
2022/04/18 16:32:18;;;;;;;;;;;;;;;;;;5052676;28;20014;-86
2022/04/18 16:34:43;;;;;;;;;;;;;;;;;;5055930;28;20599;-86
2022/04/18 16:37:08;;;;;;;;;;;;;;;;;;5070328;28;20352;-85
2022/04/18 16:39:33;;;;;;;;;;;;;;;;;;5068183;28;19920;-85
2022/04/18 16:47:26;;;;;;;;;;;;;;;;;;5057170;28;20426;-85
2022/04/18 16:49:51;;;;;;;;;;;;;;;;;;5054067;28;19917;-85
2022/04/18 16:52:16;;;;;;;;;;;;;;;;;;5066826;28;19957;-86
2022/04/18 16:54:41;;;;;;;;;;;;;;;;;;5075076;28;19957;-85
2022/04/18 16:57:07;;;;;;;;;;;;;;;;;;5075187;28;19915;-85
2022/04/18 16:59:32;;;;;;;;;;;;;;;;;;5072085;28;20287;-85
2022/04/18 17:01:57;;;;;;;;;;;;;;;;;;5071428;28;19917;-86
2022/04/18 17:04:22;;;;;;;;;;;;;;;;;;5074438;28;20066;-85
2022/04/18 17:06:47;;;;;;;;;;;;;;;;;;5074545;28;20363;-85
2022/04/18 17:09:12;;;;;;;;;;;;;;;;;;5074827;28;19999;-86
2022/04/18 17:11:37;;;;;;;;;;;;;;;;;;5070527;28;19919;-85
2022/04/18 17:14:03;;;;;;;;;;;;;;;;;;5073217;28;20003;-86